Time;durP1;ratioP1;P1;durP2;ratioP2;P2;SDS_P1;SDS_P2;PMS_P1;PMS_P2;Temp;Humidity;BMP_temperature;BMP_pressure;BME280_temperature;BME280_humidity;BME280_pressure;Samples;Min_cycle;Max_cycle;Signal;HPM_P1;HPM_P2
2022/07/12 00:20:35;;;;;;;108.47;102.73;;;;;;;16.98;80.82;97371.09;5351164;22;20242;-65
2022/07/12 00:23:01;;;;;;;50.67;47.93;;;;;;;17.04;80.55;97372.72;5031102;28;20183;-65
2022/07/12 00:25:26;;;;;;;30.23;28.63;;;;;;;17.14;80.35;97374.66;5031124;28;20632;-65
2022/07/12 00:27:52;;;;;;;19.40;18.37;;;;;;;17.09;80.42;97373.81;5033057;28;20205;-65
2022/07/12 00:30:18;;;;;;;14.90;14.00;;;;;;;17.34;79.52;97368.69;5035047;28;20232;-65
2022/07/12 00:32:44;;;;;;;23.70;22.40;;;;;;;17.32;79.38;97366.31;5035080;28;20548;-65
2022/07/12 00:35:10;;;;;;;40.83;38.63;;;;;;;17.12;80.36;97365.34;5035044;28;20710;-65
2022/07/12 00:37:35;;;;;;;57.83;54.63;;;;;;;17.33;79.71;97359.16;5034879;28;20183;-65
2022/07/12 00:40:01;;;;;;;74.00;70.00;;;;;;;17.43;78.90;97367.16;5034704;28;20253;-66
2022/07/12 00:42:27;;;;;;;69.33;65.47;;;;;;;17.34;79.27;97371.34;5034695;28;20187;-65
2022/07/12 00:44:52;;;;;;;39.63;37.53;;;;;;;17.27;79.55;97368.94;5034962;28;20182;-65
2022/07/12 00:47:40;;;;;;;32.17;30.37;;;;;;;17.34;79.79;97369.47;5035523;28;20187;-65
2022/07/12 00:50:07;;;;;;;24.27;22.87;;;;;;;17.17;80.37;97360.88;5026645;28;20174;-65
2022/07/12 00:52:32;;;;;;;21.87;20.63;;;;;;;17.21;80.17;97356.69;5034627;28;20302;-66
2022/07/12 00:54:58;;;;;;;22.57;21.37;;;;;;;17.31;79.86;97366.56;5034541;28;20285;-65
2022/07/12 00:57:23;;;;;;;39.13;36.87;;;;;;;17.14;80.71;97357.94;5034918;28;20697;-65
2022/07/12 00:59:49;;;;;;;38.43;36.27;;;;;;;16.94;82.01;97367.31;5034526;28;20216;-65
2022/07/12 01:02:15;;;;;;;46.33;43.77;;;;;;;17.09;81.20;97366.66;5016918;28;20577;-66
2022/07/12 01:04:43;;;;;;;27.13;25.67;;;;;;;16.96;81.67;97359.13;5034233;28;20198;-65
2022/07/12 01:07:08;;;;;;;26.43;24.93;;;;;;;17.09;81.01;97371.16;5034691;28;20190;-65
2022/07/12 01:09:33;;;;;;;32.33;30.60;;;;;;;17.18;80.41;97367.78;5034344;28;20206;-65
2022/07/12 01:11:59;;;;;;;38.07;35.87;;;;;;;17.23;80.04;97367.00;5016544;28;20671;-65
2022/07/12 01:14:25;;;;;;;43.07;40.77;;;;;;;17.00;81.17;97365.50;5034506;28;20198;-65
2022/07/12 01:16:51;;;;;;;63.07;59.73;;;;;;;16.91;81.68;97374.97;5034424;28;20268;-65
2022/07/12 01:19:20;;;;;;;62.20;58.93;;;;;;;17.11;80.42;97367.19;5032932;28;20699;-65
2022/07/12 01:21:50;;;;;;;58.30;55.30;;;;;;;16.96;81.12;97372.38;5034092;28;20283;-65
2022/07/12 01:24:18;;;;;;;64.17;60.73;;;;;;;16.99;81.30;97371.88;5033981;28;20171;-65
2022/07/12 01:26:44;;;;;;;57.43;54.40;;;;;;;17.02;80.81;97376.66;5016676;28;20495;-65
2022/07/12 01:29:10;;;;;;;61.40;58.23;;;;;;;17.00;80.86;97370.81;5034216;28;20270;-65
2022/07/12 01:31:35;;;;;;;63.53;60.30;;;;;;;17.05;80.42;97374.28;5034226;28;20651;-65
2022/07/12 01:34:06;;;;;;;58.50;55.40;;;;;;;17.00;80.75;97376.91;5033580;28;20225;-65
2022/07/12 01:36:32;;;;;;;51.67;48.87;;;;;;;17.16;79.88;97374.41;5016213;28;20183;-65
2022/07/12 01:38:57;;;;;;;53.30;50.47;;;;;;;17.00;81.20;97371.63;5033222;28;20485;-65
2022/07/12 01:41:23;;;;;;;52.20;49.33;;;;;;;16.91;81.36;97372.34;5033695;28;20232;-65
2022/07/12 01:43:52;;;;;;;42.70;40.37;;;;;;;16.82;81.76;97369.38;5033638;28;20198;-65
2022/07/12 01:46:17;;;;;;;31.97;30.33;;;;;;;16.88;81.68;97367.56;5033567;28;20179;-65
2022/07/12 01:48:43;;;;;;;29.73;28.20;;;;;;;16.72;82.54;97368.47;5033700;28;20193;-65
2022/07/12 01:51:09;;;;;;;24.27;23.07;;;;;;;16.73;82.41;97367.41;5033036;28;20210;-65
2022/07/12 01:53:36;;;;;;;27.67;26.17;;;;;;;16.79;82.13;97367.19;5015542;28;20289;-64
2022/07/12 01:56:03;;;;;;;36.17;34.27;;;;;;;16.81;82.02;97366.97;5033806;28;20195;-66
2022/07/12 01:58:28;;;;;;;52.17;49.43;;;;;;;16.58;83.22;97365.38;5034214;28;20546;-65
2022/07/12 02:00:54;;;;;;;68.40;64.80;;;;;;;16.49;83.91;97362.41;5033489;28;20320;-65
2022/07/12 02:03:20;;;;;;;90.30;85.60;;;;;;;16.69;82.75;97356.53;5032765;28;20183;-63
2022/07/12 02:05:46;;;;;;;118.70;112.53;;;;;;;16.47;84.00;97356.56;5033511;28;20190;-65
2022/07/12 02:08:12;;;;;;;119.50;113.27;;;;;;;16.47;84.40;97355.75;5033379;28;20186;-64
2022/07/12 02:10:38;;;;;;;116.70;110.37;;;;;;;16.68;83.36;97352.28;5033476;28;20194;-65
2022/07/12 02:13:04;;;;;;;103.50;98.10;;;;;;;16.81;82.61;97357.16;5032419;28;20546;-65
2022/07/12 02:15:31;;;;;;;71.77;67.87;;;;;;;16.92;81.85;97356.19;5033227;28;20197;-65
2022/07/12 02:17:56;;;;;;;39.27;37.13;;;;;;;16.64;83.30;97356.47;5032880;28;20186;-65
2022/07/12 02:20:22;;;;;;;35.73;33.83;;;;;;;16.46;84.01;97364.72;5032428;28;20242;-65
2022/07/12 02:22:47;;;;;;;35.63;33.57;;;;;;;16.25;85.12;97357.63;5033032;28;20182;-65
2022/07/12 02:25:13;;;;;;;34.50;32.63;;;;;;;16.24;85.34;97354.19;5032907;28;20186;-65
2022/07/12 02:27:40;;;;;;;34.50;32.57;;;;;;;16.36;85.06;97365.44;5033265;28;20217;-67
2022/07/12 02:30:07;;;;;;;40.80;38.57;;;;;;;16.51;84.30;97362.94;5032953;28;20598;-65
2022/07/12 02:32:32;;;;;;;46.43;43.77;;;;;;;16.27;85.64;97359.00;5015140;28;20655;-65
2022/07/12 02:34:58;;;;;;;51.23;48.30;;;;;;;16.29;85.94;97353.44;5032598;28;20203;-65
2022/07/12 02:37:23;;;;;;;52.23;49.33;;;;;;;16.34;85.51;97356.13;5032450;28;20175;-65
2022/07/12 02:39:49;;;;;;;51.63;48.73;;;;;;;16.45;84.56;97353.34;5032890;28;20285;-65
2022/07/12 02:42:14;;;;;;;67.23;63.50;;;;;;;16.42;84.69;97353.88;5033020;28;20187;-65
2022/07/12 02:54:06;;;;;;;86.23;81.63;;;;;;;16.17;86.79;97350.94;5010111;23;20292;-66
2022/07/12 02:56:33;;;;;;;78.40;74.13;;;;;;;16.18;86.61;97352.53;5069679;28;20196;-66
2022/07/12 02:58:58;;;;;;;66.77;62.90;;;;;;;16.17;86.61;97358.88;5069467;28;20181;-66
2022/07/12 03:01:24;;;;;;;53.00;50.10;;;;;;;16.16;87.16;97352.00;5069774;28;20254;-66
2022/07/12 03:03:49;;;;;;;45.73;43.13;;;;;;;16.16;86.82;97350.13;5070516;28;20260;-66
2022/07/12 03:06:15;;;;;;;37.53;35.40;;;;;;;16.14;87.29;97346.97;5052622;28;20611;-66
2022/07/12 03:08:40;;;;;;;34.07;32.10;;;;;;;15.86;88.77;97354.28;5069622;28;20184;-66
2022/07/12 03:11:06;;;;;;;30.77;28.87;;;;;;;16.06;87.96;97355.31;5070907;28;20250;-66
2022/07/12 03:13:31;;;;;;;29.33;27.70;;;;;;;15.95;88.96;97358.88;5069736;28;20232;-66
2022/07/12 03:15:56;;;;;;;27.23;25.63;;;;;;;16.19;87.94;97359.44;5069861;28;20656;-66
2022/07/12 03:18:22;;;;;;;24.87;23.37;;;;;;;16.29;87.18;97362.19;5069292;28;20185;-66
2022/07/12 03:20:48;;;;;;;28.17;26.53;;;;;;;16.29;87.03;97364.03;5069534;28;20196;-66
2022/07/12 03:23:14;;;;;;;35.43;33.33;;;;;;;15.90;89.06;97366.75;5069897;28;20208;-66
2022/07/12 03:25:39;;;;;;;41.43;39.13;;;;;;;15.86;89.90;97363.00;5069995;28;20204;-66
2022/07/12 03:28:05;;;;;;;40.50;38.23;;;;;;;15.72;91.12;97369.69;5051097;28;20209;-66
2022/07/12 03:30:30;;;;;;;37.63;35.53;;;;;;;15.80;90.60;97370.09;5069746;28;20177;-66
2022/07/12 03:32:56;;;;;;;37.50;35.43;;;;;;;15.73;91.37;97379.22;5070229;28;20264;-66
2022/07/12 03:35:21;;;;;;;41.90;39.50;;;;;;;15.78;90.72;97369.50;5070653;28;20284;-66
2022/07/12 03:37:49;;;;;;;39.50;37.30;;;;;;;15.87;90.42;97374.38;5051233;28;20316;-66
2022/07/12 03:40:16;;;;;;;43.70;41.40;;;;;;;15.89;90.02;97378.38;5069835;28;20205;-66
2022/07/12 03:42:42;;;;;;;38.73;36.53;;;;;;;16.20;88.59;97379.56;5069762;28;20205;-66
2022/07/12 03:45:08;;;;;;;39.80;37.60;;;;;;;16.41;87.40;97386.66;5069409;28;20212;-66
2022/07/12 03:47:39;;;;;;;37.43;35.20;;;;;;;16.49;87.30;97391.53;5069803;28;20510;-66
2022/07/12 03:50:10;;;;;;;38.00;35.93;;;;;;;16.30;88.88;97389.44;5052849;28;20244;-66
2022/07/12 03:52:36;;;;;;;37.80;35.57;;;;;;;16.36;88.61;97389.25;5070419;28;20173;-66
2022/07/12 03:55:02;;;;;;;45.97;43.37;;;;;;;16.31;88.82;97397.13;5068573;28;20328;-66
2022/07/12 03:57:28;;;;;;;41.70;38.70;;;;;;;16.38;89.73;97389.81;5070353;28;20239;-66
2022/07/12 03:59:55;;;;;;;61.03;57.53;;;;;;;16.41;89.88;97391.94;5069653;28;20224;-66
2022/07/12 04:02:20;;;;;;;53.73;50.47;;;;;;;16.27;90.58;97403.97;5071200;28;20576;-65
2022/07/12 04:04:46;;;;;;;53.73;50.40;;;;;;;16.28;90.52;97402.09;5074418;28;20199;-65
2022/07/12 04:07:11;;;;;;;58.23;54.57;;;;;;;16.25;90.49;97410.53;5074434;28;20189;-65
2022/07/12 04:09:37;;;;;;;64.13;60.47;;;;;;;16.03;91.58;97414.00;5073579;28;20174;-65
2022/07/12 04:12:03;;;;;;;60.10;56.60;;;;;;;15.86;92.70;97415.88;5073466;28;20193;-65
2022/07/12 04:14:28;;;;;;;48.23;45.40;;;;;;;15.95;92.57;97418.88;5074595;28;20205;-66
2022/07/12 04:16:54;;;;;;;52.37;49.20;;;;;;;16.08;92.45;97419.34;5074077;28;20193;-65
2022/07/12 04:19:23;;;;;;;57.77;54.43;;;;;;;16.14;92.19;97421.00;5073591;28;20182;-65
2022/07/12 04:21:49;;;;;;;65.80;62.00;;;;;;;16.17;92.03;97417.84;5072885;28;20189;-65
2022/07/12 04:24:14;;;;;;;60.10;56.47;;;;;;;16.04;92.85;97412.97;5073655;28;20287;-65
2022/07/12 04:26:40;;;;;;;57.97;54.20;;;;;;;16.04;93.66;97414.78;5073444;28;20198;-65
2022/07/12 04:29:06;;;;;;;53.30;50.00;;;;;;;16.05;93.96;97413.75;5072771;28;20204;-65
2022/07/12 04:31:31;;;;;;;60.50;56.80;;;;;;;16.08;94.08;97405.31;5073023;28;20299;-65
2022/07/12 04:33:56;;;;;;;64.77;60.97;;;;;;;16.07;94.13;97406.34;5073408;28;20665;-65
2022/07/12 04:36:22;;;;;;;62.50;58.63;;;;;;;15.91;95.21;97401.94;5073007;28;20200;-65
2022/07/12 04:38:47;;;;;;;57.43;53.97;;;;;;;16.34;93.08;97403.75;5073620;28;20185;-65
2022/07/12 04:41:12;;;;;;;57.67;54.03;;;;;;;15.98;94.74;97410.50;5072774;28;20557;-65
2022/07/12 04:43:38;;;;;;;62.87;59.23;;;;;;;16.63;91.92;97411.28;5073354;28;20208;-65
2022/07/12 04:46:07;;;;;;;98.83;93.37;;;;;;;16.81;90.13;97414.63;5073781;28;20177;-65
2022/07/12 04:48:32;;;;;;;73.43;69.17;;;;;;;17.52;86.28;97408.03;5073265;28;20645;-65
2022/07/12 04:50:58;;;;;;;82.70;78.03;;;;;;;17.71;84.17;97406.59;5073149;28;20247;-65
2022/07/12 04:53:23;;;;;;;129.20;122.30;;;;;;;17.58;84.10;97412.31;5072783;28;20181;-65
2022/07/12 04:55:48;;;;;;;110.30;104.40;;;;;;;17.80;83.48;97413.00;5072578;28;20590;-65
2022/07/12 04:58:14;;;;;;;138.63;131.03;;;;;;;17.69;83.33;97411.34;5073112;28;20224;-65
2022/07/12 05:00:39;;;;;;;111.10;105.10;;;;;;;17.83;82.69;97409.06;5054593;28;20238;-65
2022/07/12 05:03:05;;;;;;;99.10;93.78;;;;;;;18.02;81.69;97410.19;5072268;28;20583;-65
2022/07/12 05:05:30;;;;;;;83.87;78.70;;;;;;;18.17;80.98;97415.56;5073258;28;20247;-65
2022/07/12 05:07:56;;;;;;;137.98;130.75;;;;;;;18.31;80.08;97413.25;5072245;28;20214;-65
2022/07/12 05:10:21;;;;;;;96.20;91.13;;;;;;;18.53;79.86;97421.00;5072618;28;20551;-65
2022/07/12 05:12:46;;;;;;;80.32;75.88;;;;;;;18.36;79.37;97426.53;5072753;28;20269;-64
2022/07/12 05:15:12;;;;;;;111.85;105.63;;;;;;;18.41;79.28;97426.53;5053545;28;20286;-66
2022/07/12 05:17:37;;;;;;;184.20;173.90;;;;;;;18.25;79.38;97425.69;5072945;28;20259;-65
2022/07/12 05:20:03;;;;;;;141.27;133.60;;;;;;;18.36;79.44;97423.88;5054379;28;20261;-65
2022/07/12 05:22:28;;;;;;;139.68;132.20;;;;;;;18.13;78.67;97432.28;5073025;28;20185;-64
2022/07/12 05:24:54;;;;;;;226.30;213.98;;;;;;;19.01;75.57;97419.78;5072321;28;20416;-64
2022/07/12 05:27:19;;;;;;;253.27;239.70;;;;;;;18.16;78.79;97427.25;5072098;28;20185;-65
2022/07/12 05:29:44;;;;;;;180.10;170.38;;;;;;;19.13;74.42;97430.16;5072483;28;20204;-66
2022/07/12 05:32:10;;;;;;;200.52;189.70;;;;;;;19.30;73.62;97444.00;5071912;28;20183;-66
2022/07/12 05:34:38;;;;;;;181.93;171.75;;;;;;;19.40;73.81;97434.16;5053822;28;20296;-65
2022/07/12 05:37:04;;;;;;;160.60;152.05;;;;;;;19.51;72.68;97438.44;5072406;28;20602;-65
2022/07/12 05:39:29;;;;;;;147.30;139.40;;;;;;;20.12;69.67;97434.84;5054891;28;20272;-64
2022/07/12 05:41:54;;;;;;;132.88;125.72;;;;;;;19.87;70.04;97439.19;5072794;28;20544;-65
2022/07/12 05:44:20;;;;;;;94.68;89.47;;;;;;;19.49;70.67;97443.25;5072596;28;20543;-66
2022/07/12 05:46:46;;;;;;;119.65;113.20;;;;;;;19.38;71.01;97451.47;5072880;28;20185;-66
2022/07/12 05:49:11;;;;;;;156.70;148.65;;;;;;;19.08;71.53;97446.91;5053790;28;20185;-66
2022/07/12 05:54:21;;;;;;;213.27;201.90;;;;;;;19.34;71.31;97450.38;5064270;28;20239;-66
2022/07/12 05:56:47;;;;;;;212.40;200.98;;;;;;;19.61;71.19;97461.59;5072097;28;20280;-66
2022/07/12 05:59:12;;;;;;;203.48;192.40;;;;;;;20.32;68.17;97454.25;5072023;28;20194;-66
2022/07/12 06:01:37;;;;;;;218.73;207.15;;;;;;;20.16;67.93;97459.88;5071675;28;20276;-66
2022/07/12 06:04:03;;;;;;;187.90;178.13;;;;;;;19.84;69.60;97465.53;5071551;28;20647;-66
2022/07/12 06:06:28;;;;;;;119.32;112.95;;;;;;;20.28;67.50;97460.38;5070877;28;20189;-66
2022/07/12 06:08:54;;;;;;;104.72;99.15;;;;;;;20.19;68.62;97467.31;5071358;28;20196;-65
2022/07/12 06:11:19;;;;;;;75.07;71.05;;;;;;;20.00;67.24;97466.31;5071246;28;20283;-65
2022/07/12 06:13:44;;;;;;;73.47;69.70;;;;;;;19.87;67.21;97470.31;5071511;28;20216;-66
2022/07/12 06:16:11;;;;;;;63.83;60.47;;;;;;;19.73;68.34;97472.72;5071003;28;20250;-65
2022/07/12 06:18:37;;;;;;;60.67;57.38;;;;;;;20.06;67.03;97474.00;5071542;28;20588;-65
2022/07/12 06:21:02;;;;;;;52.30;49.58;;;;;;;19.51;68.10;97470.34;5070510;28;20189;-65
2022/07/12 06:23:28;;;;;;;51.53;48.72;;;;;;;20.13;65.70;97482.50;5070681;28;20198;-65
2022/07/12 06:25:53;;;;;;;44.38;41.92;;;;;;;20.66;64.01;97477.56;5070351;28;20208;-65
2022/07/12 06:28:18;;;;;;;33.17;31.42;;;;;;;20.19;65.21;97480.63;5070723;28;20302;-65
2022/07/12 06:30:44;;;;;;;32.03;30.42;;;;;;;20.46;63.53;97483.75;5071271;28;20185;-65
2022/07/12 06:33:09;;;;;;;25.90;24.42;;;;;;;20.10;65.74;97483.03;5053019;28;20181;-65
2022/07/12 06:35:35;;;;;;;26.45;25.05;;;;;;;20.92;62.58;97483.53;5070799;28;20657;-65
2022/07/12 06:38:00;;;;;;;66.15;62.80;;;;;;;20.70;62.30;97483.91;5071585;28;20181;-65
2022/07/12 06:40:25;;;;;;;103.82;98.65;;;;;;;20.86;61.62;97495.28;5071418;28;20510;-64
2022/07/12 06:42:51;;;;;;;87.75;83.32;;;;;;;21.04;61.85;97492.00;5071290;28;20184;-65
2022/07/12 06:45:16;;;;;;;90.53;86.05;;;;;;;20.88;60.69;97482.50;5070675;28;20690;-65
2022/07/12 06:47:42;;;;;;;77.50;73.63;;;;;;;21.04;60.52;97476.81;5070734;28;20188;-65
2022/07/12 06:50:08;;;;;;;74.90;71.13;;;;;;;21.10;59.68;97486.38;5070880;28;20528;-65
2022/07/12 06:52:33;;;;;;;78.25;74.18;;;;;;;20.91;61.02;97489.94;5070299;28;20204;-65
2022/07/12 06:54:59;;;;;;;76.85;72.90;;;;;;;20.54;63.26;97495.72;5070162;28;20324;-65
2022/07/12 06:57:26;;;;;;;74.22;70.53;;;;;;;21.11;60.32;97487.97;5071106;28;20269;-65
2022/07/12 06:59:52;;;;;;;67.10;63.58;;;;;;;21.34;60.76;97486.50;5071350;28;20213;-65
2022/07/12 07:02:17;;;;;;;243.27;228.55;;;;;;;21.35;60.07;97493.41;5071057;28;20239;-66
2022/07/12 07:04:42;;;;;;;74.80;70.82;;;;;;;21.09;60.70;97497.28;5070855;28;20657;-66
2022/07/12 07:07:08;;;;;;;64.72;61.25;;;;;;;21.05;60.98;97488.25;5070948;28;20284;-65
2022/07/12 07:09:34;;;;;;;58.15;55.05;;;;;;;21.21;60.78;97495.13;5071120;28;20256;-65
2022/07/12 07:12:00;;;;;;;59.35;56.28;;;;;;;21.50;59.22;97495.97;5070570;28;20547;-65
2022/07/12 07:14:25;;;;;;;74.75;71.00;;;;;;;21.04;58.58;97505.31;5070238;28;20225;-65
2022/07/12 07:16:53;;;;;;;58.92;55.83;;;;;;;22.06;57.05;97498.19;5070290;28;20189;-65
2022/07/12 07:19:18;;;;;;;73.05;69.28;;;;;;;22.09;56.90;97502.16;5070445;28;20202;-65
2022/07/12 07:21:44;;;;;;;79.90;75.72;;;;;;;22.55;55.05;97505.13;5070663;28;20275;-66
2022/07/12 07:24:10;;;;;;;91.55;86.07;;;;;;;23.18;53.50;97502.97;5070298;28;20197;-66
2022/07/12 07:26:35;;;;;;;86.95;82.38;;;;;;;23.00;53.60;97509.91;5070770;28;20191;-66
2022/07/12 07:31:44;;;;;;;73.47;69.43;;;;;;;22.54;54.63;97498.97;5069966;28;20230;-67
2022/07/12 07:34:10;;;;;;;74.32;70.45;;;;;;;22.80;53.74;97508.28;5066865;28;20555;-66
2022/07/12 07:36:35;;;;;;;65.88;62.45;;;;;;;22.68;52.49;97507.88;5032776;28;20647;-66
2022/07/12 07:39:01;;;;;;;51.78;48.97;;;;;;;22.43;52.76;97512.72;5053792;28;20271;-66
2022/07/12 07:41:26;;;;;;;47.10;44.53;;;;;;;22.24;54.15;97510.00;5054477;28;20173;-66
2022/07/12 07:43:52;;;;;;;45.17;42.75;;;;;;;21.76;54.92;97512.56;5054398;28;20177;-65
2022/07/12 07:46:17;;;;;;;148.88;140.95;;;;;;;22.02;54.52;97507.00;5053935;28;20226;-66
2022/07/12 07:48:43;;;;;;;49.03;46.53;;;;;;;21.50;56.11;97511.19;5054392;28;20181;-67
2022/07/12 07:51:08;;;;;;;56.40;53.40;;;;;;;21.43;56.69;97513.38;5053226;28;20260;-66
2022/07/12 07:53:33;;;;;;;51.63;48.95;;;;;;;21.74;54.16;97513.91;5068287;28;20318;-67
2022/07/12 07:55:59;;;;;;;43.97;41.78;;;;;;;21.57;54.38;97512.44;5055368;28;20178;-66
2022/07/12 07:58:25;;;;;;;42.92;40.55;;;;;;;21.88;53.73;97518.34;5074293;28;20177;-66
2022/07/12 08:00:51;;;;;;;42.13;39.88;;;;;;;21.72;55.14;97516.88;5073861;28;20643;-67
2022/07/12 08:03:17;;;;;;;50.08;47.15;;;;;;;22.07;54.13;97529.13;5055889;28;20502;-67
2022/07/12 08:05:43;;;;;;;51.65;48.95;;;;;;;21.56;55.57;97508.22;5073786;28;20181;-66
2022/07/12 08:08:09;;;;;;;42.50;40.33;;;;;;;21.98;53.78;97518.28;5074278;28;20207;-66
2022/07/12 08:10:34;;;;;;;39.97;37.88;;;;;;;22.10;52.32;97511.75;5073392;28;20219;-66
2022/07/12 08:13:00;;;;;;;39.30;37.35;;;;;;;21.51;52.48;97518.91;5074049;28;20177;-67
2022/07/12 08:15:26;;;;;;;34.53;32.83;;;;;;;21.38;52.43;97510.75;5073452;28;20201;-65
2022/07/12 08:17:51;;;;;;;33.65;31.95;;;;;;;21.17;52.44;97519.94;5073702;28;20240;-65
2022/07/12 08:20:17;;;;;;;38.03;36.15;;;;;;;21.47;52.00;97517.88;5073492;28;20200;-65
2022/07/12 08:22:44;;;;;;;120.03;114.15;;;;;;;21.62;50.55;97516.16;5073752;28;20632;-64
2022/07/12 08:25:10;;;;;;;176.60;167.73;;;;;;;21.38;51.04;97510.75;5072953;28;20688;-65
2022/07/12 08:27:36;;;;;;;226.30;214.80;;;;;;;21.58;51.08;97518.56;5055505;28;20194;-65
2022/07/12 08:30:01;;;;;;;61.47;58.42;;;;;;;21.54;51.73;97512.22;5073239;28;20189;-65
2022/07/12 08:32:26;;;;;;;227.50;215.68;;;;;;;21.31;51.36;97504.91;5073644;28;20178;-65
2022/07/12 08:34:52;;;;;;;152.20;144.80;;;;;;;21.80;50.89;97516.25;5073452;28;20657;-65
2022/07/12 08:37:17;;;;;;;31.63;30.00;;;;;;;21.45;53.36;97508.56;5073616;28;20182;-65
2022/07/12 08:39:42;;;;;;;34.45;32.55;;;;;;;21.51;53.13;97510.13;5072911;28;20276;-64
2022/07/12 08:42:08;;;;;;;34.92;33.13;;;;;;;21.54;53.34;97513.00;5073056;28;20319;-64
2022/07/12 08:44:34;;;;;;;30.88;29.33;;;;;;;21.75;53.46;97508.31;5054795;28;20196;-65
2022/07/12 08:46:59;;;;;;;31.17;29.60;;;;;;;21.43;54.54;97516.84;5073219;28;20181;-64
2022/07/12 08:49:24;;;;;;;27.13;25.77;;;;;;;21.62;53.81;97508.97;5072737;28;20260;-65
2022/07/12 08:51:50;;;;;;;28.73;27.30;;;;;;;22.27;53.28;97520.91;5072647;28;20208;-64
2022/07/12 08:54:18;;;;;;;31.95;30.35;;;;;;;22.42;52.40;97516.47;5072760;28;20316;-66
2022/07/12 08:56:44;;;;;;;47.28;44.78;;;;;;;22.35;51.83;97522.97;5073236;28;20182;-66
2022/07/12 08:59:20;;;;;;;43.90;41.38;;;;;;;22.51;50.97;97531.63;5073361;28;20250;-66
2022/07/12 09:01:55;;;;;;;50.80;48.15;;;;;;;22.50;51.26;97527.34;5073141;28;20208;-66
2022/07/12 09:04:21;;;;;;;44.92;42.58;;;;;;;22.46;51.74;97528.97;5073146;28;20169;-67
2022/07/12 09:06:47;;;;;;;114.78;109.03;;;;;;;23.07;50.47;97533.63;5072439;28;20218;-65
2022/07/12 09:09:31;;;;;;;244.55;232.55;;;;;;;22.03;52.23;97529.97;5073035;28;20177;-64
2022/07/12 09:11:56;;;;;;;162.20;154.40;;;;;;;22.03;52.23;97541.44;5054974;28;20173;-65
2022/07/12 09:14:22;;;;;;;36.53;34.72;;;;;;;22.01;52.49;97537.47;5073321;28;20622;-65
2022/07/12 09:17:13;;;;;;;39.17;37.17;;;;;;;21.68;52.49;97536.41;5072190;28;20177;-65
2022/07/12 09:19:39;;;;;;;39.50;37.47;;;;;;;22.42;52.37;97527.16;5073215;28;20172;-65
2022/07/12 09:22:14;;;;;;;35.80;34.00;;;;;;;22.42;51.62;97533.31;5072838;28;20181;-65
2022/07/12 09:24:39;;;;;;;183.50;174.43;;;;;;;21.90;51.38;97529.50;5072321;28;20181;-65
2022/07/12 09:27:05;;;;;;;40.78;38.55;;;;;;;21.77;52.05;97532.03;5072420;28;20261;-66
2022/07/12 09:29:32;;;;;;;38.63;36.67;;;;;;;22.07;50.98;97529.13;5072217;28;20204;-67
2022/07/12 09:37:42;;;;;;;246.25;233.75;;;;;;;22.62;49.97;97527.75;5072463;28;20192;-66
2022/07/12 09:40:08;;;;;;;230.27;218.50;;;;;;;22.68;49.88;97531.94;5072395;28;20181;-66
2022/07/12 09:42:34;;;;;;;199.02;189.13;;;;;;;22.49;49.54;97533.78;5072640;28;20325;-66
2022/07/12 09:45:00;;;;;;;180.85;172.02;;;;;;;21.62;51.76;97532.97;5071852;28;20178;-66
2022/07/12 09:47:26;;;;;;;228.10;217.05;;;;;;;21.88;51.75;97533.56;5072218;28;20209;-66
2022/07/12 09:49:52;;;;;;;139.20;132.43;;;;;;;22.13;50.96;97529.88;5072233;28;20508;-67
2022/07/12 09:52:23;;;;;;;217.10;206.20;;;;;;;22.06;50.79;97529.41;5072045;28;20194;-66
2022/07/12 09:54:53;;;;;;;202.52;192.68;;;;;;;22.30;50.93;97528.34;5070672;28;20225;-67
2022/07/12 09:57:25;;;;;;;168.88;160.63;;;;;;;22.23;51.31;97524.44;5071821;28;20534;-67
2022/07/12 09:59:52;;;;;;;227.50;216.23;;;;;;;22.32;50.63;97534.22;5070703;28;20271;-66
2022/07/12 10:02:18;;;;;;;218.23;207.70;;;;;;;22.16;50.56;97534.66;5071691;28;20178;-66
2022/07/12 10:04:45;;;;;;;210.80;200.57;;;;;;;22.15;50.60;97541.06;5072302;28;20654;-66
2022/07/12 10:07:14;;;;;;;213.10;202.80;;;;;;;22.34;50.80;97526.72;5071444;28;20264;-65
2022/07/12 10:09:41;;;;;;;177.13;168.43;;;;;;;22.62;48.79;97532.28;5071129;28;20229;-65
2022/07/12 10:12:12;;;;;;;166.20;157.93;;;;;;;22.61;49.92;97536.03;5071180;28;20630;-66
2022/07/12 10:14:38;;;;;;;157.90;150.18;;;;;;;22.22;50.60;97536.19;5071651;28;20243;-66
2022/07/12 10:17:09;;;;;;;165.93;157.57;;;;;;;21.98;50.71;97544.97;5071364;28;20177;-66
2022/07/12 10:19:35;;;;;;;186.60;177.27;;;;;;;22.03;50.80;97541.44;5071639;28;20248;-65
2022/07/12 10:22:03;;;;;;;193.73;184.27;;;;;;;22.34;50.75;97542.75;5070845;28;20640;-65
2022/07/12 10:24:32;;;;;;;166.82;158.57;;;;;;;22.37;50.31;97541.38;5071281;28;20186;-66
2022/07/12 10:27:18;;;;;;;155.82;148.18;;;;;;;22.34;50.35;97541.97;5071369;28;20186;-66
2022/07/12 10:29:44;;;;;;;122.43;116.32;;;;;;;22.28;49.71;97538.53;5070556;28;20626;-65
2022/07/12 10:32:39;;;;;;;126.93;120.13;;;;;;;22.08;49.66;97537.94;5071425;28;20178;-66
2022/07/12 10:35:07;;;;;;;156.00;148.40;;;;;;;22.59;50.34;97533.66;5070591;28;20201;-65
2022/07/12 10:37:34;;;;;;;154.07;145.82;;;;;;;22.08;50.83;97535.25;5070702;28;20313;-65
2022/07/12 10:40:20;;;;;;;163.85;155.88;;;;;;;21.88;51.46;97531.69;5071213;28;20181;-65
2022/07/12 10:43:00;;;;;;;173.48;165.13;;;;;;;21.87;50.64;97532.75;5071267;28;20190;-65
2022/07/12 10:45:30;;;;;;;119.38;113.35;;;;;;;21.86;50.74;97533.81;5070859;28;20188;-65
2022/07/12 10:48:01;;;;;;;137.63;130.88;;;;;;;21.98;50.90;97528.94;5071415;28;20209;-65
2022/07/12 10:50:42;;;;;;;170.77;162.50;;;;;;;22.43;49.51;97528.75;5071192;28;20575;-65
2022/07/12 10:53:20;;;;;;;143.00;135.90;;;;;;;22.22;50.44;97515.63;5070897;28;20219;-65
2022/07/12 10:56:14;;;;;;;154.05;146.57;;;;;;;22.67;49.20;97506.31;5069813;28;20244;-65
2022/07/12 10:58:41;;;;;;;166.27;158.18;;;;;;;22.99;49.19;97504.84;5068037;28;20270;-65
2022/07/12 11:01:10;;;;;;;129.00;122.63;;;;;;;22.97;48.70;97510.47;5071144;28;20283;-65
2022/07/12 11:03:44;;;;;;;75.25;71.57;;;;;;;22.35;49.16;97516.81;5071087;28;20207;-64
2022/07/12 11:06:13;;;;;;;87.50;83.10;;;;;;;22.40;49.87;97512.22;5070606;28;20176;-64
2022/07/12 11:08:59;;;;;;;72.25;68.65;;;;;;;22.46;48.68;97512.94;5071237;28;20185;-64
2022/07/12 11:11:54;;;;;;;79.07;75.18;;;;;;;22.74;49.25;97508.63;5070837;28;20326;-66
2022/07/12 11:14:32;;;;;;;81.43;77.43;;;;;;;22.75;47.52;97513.69;5031721;28;20630;-65
2022/07/12 11:16:57;;;;;;;321.67;305.20;;;;;;;22.45;48.43;97510.59;5071483;28;20162;-65
2022/07/12 11:19:28;;;;;;;111.30;105.82;;;;;;;22.55;48.56;97521.16;5071260;28;20181;-65
2022/07/12 11:21:55;;;;;;;52.85;50.22;;;;;;;22.37;49.36;97504.78;5070446;28;20189;-65
2022/07/12 11:24:28;;;;;;;76.07;72.30;;;;;;;22.83;48.96;97508.81;5070566;28;20181;-65
2022/07/12 11:26:53;;;;;;;124.55;118.40;;;;;;;23.20;49.17;97512.28;5070705;28;20201;-66
2022/07/12 11:29:19;;;;;;;134.82;128.25;;;;;;;22.71;48.67;97519.88;5052421;28;20181;-65
2022/07/12 11:31:45;;;;;;;66.22;62.97;;;;;;;22.52;49.28;97522.50;5071102;28;20177;-66
2022/07/12 11:34:25;;;;;;;49.78;47.33;;;;;;;22.52;49.38;97505.66;5070779;28;20216;-66
2022/07/12 11:36:56;;;;;;;53.38;50.78;;;;;;;22.34;49.99;97504.56;5070251;28;20276;-65
2022/07/12 11:39:35;;;;;;;76.70;72.93;;;;;;;22.54;49.03;97504.31;5069724;28;20195;-66
2022/07/12 11:42:00;;;;;;;57.65;54.65;;;;;;;22.82;48.60;97508.00;5058877;28;20178;-67
2022/07/12 11:44:45;;;;;;;108.95;103.63;;;;;;;23.02;47.66;97502.38;5057447;28;20196;-66
2022/07/12 11:47:10;;;;;;;229.80;217.98;;;;;;;22.88;47.47;97508.75;5063404;28;20266;-65
2022/07/12 11:49:42;;;;;;;222.27;210.82;;;;;;;23.13;47.41;97503.03;5060311;28;20259;-66
2022/07/12 11:52:08;;;;;;;355.92;337.25;;;;;;;23.51;46.57;97511.88;5070112;28;20589;-66